Luna Pier, MI (48157)

2:20 PM EDT on September 04, 2015 (GMT -0400)
La Salle | | Change Station
CLOSE
Current Station
Personal Weather Station
Location: La Salle, MI
Elevation: 610 ft
Nearby Weather Stations

Elev 610 ft 41.87 °N, 83.47 °W | Updated 30 seconds ago

Overcast
Overcast
79.9 °F
Feels Like 84 °F
N
0.2
Wind Variable Wind from ENE
Gusts 2.5 mph

Today
High -- | Low -- °F
--% Chance of Precip.
Yesterday
High -- | Low -- °F
Precip. -- in
7:02 AM 8:02 PM
Waning Gibbous, 57% visible
Pressure 30.01 in
Visibility 10.0 miles
Clouds Overcast 2000 ft
Heat Index 84 °F
Dew Point 73 °F
Humidity 80%
Rainfall 0.05 in
Snow Depth Not available.
UV 2.0 out of 12
Pollen 6.60 out of 12
Air Quality Not available.
Flu Activity Not available.
METAR KTTF 041812Z AUTO 06003KT 10SM OVC020 26/22 A3001 RMK AO2 T02600217
Pressure 30.01 in
Visibility 10.0 miles
Clouds Overcast 2000 ft
Heat Index 84 °F
Dew Point 73 °F
Humidity 80%
Rainfall 0.05 in
Snow Depth Not available.
UV 2.0 out of 12
Pollen 6.60 out of 12
Air Quality Not available.
Flu Activity Not available.
METAR KTTF 041812Z AUTO 06003KT 10SM OVC020 26/22 A3001 RMK AO2 T02600217

10-Day Weather Forecast

×

Almanac

Astronomy

Sep. 04, 2015 Rise Set
Actual Time
Civil Twilight
Nautical Twilight
Astronomical Twilight
Moon
Length of Visible Light
Length of Day
Tomorrow will be .
, % of the Moon is Illuminated

Today's Extremes

State Highs State Lows

Community

WunderPhotos

Upload Photos

1,852,251 photos uploaded!

WunderBlogs® & News

Nearby

Air Quality

  Air Quality AQ Index Pollutant
Not available.

Snow Depth

Station Depth Elevation

Earthquake Activity

City Distance Mag. Time & Date
Minimum magnitude displayed is 2.5.

Coastal Water Temperatures

Place Temperature

Stations

Nearby Weather Stations

Station Location Temp. Windchill Dew Point Humidity Wind Precip. Elev Updated Type